Close

Questo sito utlizza cookie. Può leggere come li usiamo nella nostra Privacy Policy.

Ronchi Tower
Ronchi Tower

From Facebook

METAR & TAF

2022/01/27 04:50 LIPQ 270450Z AUTO 03003KT 1400 R09/P2000N BR SCT240/// M02/M03 Q1026
2022/01/26 18:22 TAF LIPQ 261700Z 2618/2718 VRB05KT 7000 NSC BECMG 2619/2621 3000 BR BKN008 PROB40 TEMPO 2700/2706 0600 FG OVC001 BECMG 2708/2710 6000 NSC
2022/01/27 04:50 LIPZ 270450Z VRB02KT 2000 BR BKN016 01/M00 Q1026 BECMG 1200 BR
2022/01/26 18:07 TAF LIPZ 261859Z 2618/2724 VRB05KT 2000 BR BKN015 PROB40 TEMPO 2700/2707 0400 FZFG BKN004 BECMG 2709/2711 2000 BR BKN008 TEMPO 2712/2718 6000 NSC
2022/01/27 04:50 LIPH 270450Z AUTO VRB01KT 1100 0150E R07/0600D BCFG FEW015/// M01/M02 Q1026
2022/01/26 18:23 TAF LIPH 261700Z 2618/2718 VRB05KT 2000 BR BKN010 TEMPO 2621/2707 0300 FZFG OVC001 TEMPO 2712/2717 6000 BKN015
2022/01/27 04:50 LIRF 270450Z 07006KT 9999 FEW045 04/02 Q1027 NOSIG
2022/01/26 18:39 TAF LIRF 261833Z 2618/2724 VRB05KT 9999 BKN030 TEMPO 2618/2703 2000 BR BECMG 2711/2713 27010KT BECMG 2716/2718 VRB05KT
2022/01/27 04:50 LIML 270450Z 24003KT 190V280 0400 R36/0800N FG BKN002 00/00 Q1026 NOSIG
2022/01/26 18:39 TAF LIML 261831Z 2618/2718 VRB05KT 3000 BR SCT010 TEMPO 2700/2707 0400 FG BKN004
2022/01/27 04:50 EDDM 270450Z 24008KT 9000 BKN009 M01/M03 Q1027 NOSIG
2022/01/27 03:16 TAF AMD EDDM 270306Z 2703/2806 28005KT 6000 OVC008 TEMPO 2703/2709 4000 BR OVC004 BECMG 2706/2709 SCT008 BECMG 2710/2712 26012KT TEMPO 2718/2724 26015G25KT RA BKN012 TEMPO 2800/2806 26020G30KT 4000 RASN BKN012
2022/01/27 04:50 EGSS 270450Z AUTO 24011KT 9999 BKN015 06/04 Q1025
2022/01/27 06:09 TAF EGSS 270458Z 2706/2812 23010KT 9999 OVC012 TEMPO 2706/2712 8000 -RA BKN007 PROB30 TEMPO 2706/2709 26015G25KT PROB30 TEMPO 2707/2711 4000 RADZ BECMG 2711/2713 31010KT FEW025 BECMG 2801/2804 25003KT 8000 PROB30 2804/2806 4000 BR
2022/01/27 04:50 EDDF 270450Z 20010KT 9999 OVC016 01/M02 Q1029 NOSIG
2022/01/26 18:28 TAF EDDF 261700Z 2618/2724 22005KT 9999 OVC020 TEMPO 2618/2710 BKN012 PROB30 TEMPO 2700/2710 4000 BR BKN006 BECMG 2706/2709 20012KT TEMPO 2710/2720 22015G25KT BECMG 2710/2713 3500 DZRA BKN010

FlightRadar24

Radar Meteo

Traffic data

Agosto 2018

Passeggeri: 63892-12,9% (rank: 23)
Nazionali 34490 -19,8%
Internazionali 29193 -3,0%

Movimenti: 1307+11,7% (rank: 24)
Tot commerciale 556 -7,2%
Aviazione generale 751 +31,5%

Cargo (tons): 20,6+62,5% (rank: 21)

Gennaio - Agosto 2018

Passeggeri: 507438-3,5% (rank: 23)
Nazionali 322655 -4,9%
Internazionali 182927 -0,7%

Movimenti: 10366-4,25 (rank: 22)
Tot commerciale 5328 -11,0%
Aviazione generale 5038 +4,2%

Cargo (tons): 299,2+61,9% (rank: 20)

Photo

Reims F152 II
Reims F152 II
Distinct views: 19
Gulfstream Aerospace G550
Gulfstream Aerospace G550
Distinct views: 80
Reims F152 II
Reims F152 II
Distinct views: 219
Airbus A320
Airbus A320
Total views: 8689